createdAt,value
2022-09-25T00:01:14.045Z,8.75
2022-09-25T00:03:41.110Z,6.00
2022-09-25T00:06:13.720Z,5.35
2022-09-25T00:08:41.044Z,5.10
2022-09-25T00:11:18.365Z,4.82
2022-09-25T00:13:46.388Z,4.75
2022-09-25T00:16:21.689Z,4.18
2022-09-25T00:19:06.833Z,4.50
2022-09-25T00:21:35.427Z,4.05
2022-09-25T00:24:06.637Z,5.78
2022-09-25T00:26:37.509Z,4.93
2022-09-25T00:29:06.009Z,5.00
2022-09-25T00:31:34.112Z,4.78
2022-09-25T00:34:04.597Z,4.07
2022-09-25T00:36:32.745Z,6.88
2022-09-25T00:39:00.100Z,3.20
2022-09-25T00:41:31.589Z,5.03
2022-09-25T00:44:00.406Z,4.68
2022-09-25T00:46:35.790Z,4.18
2022-09-25T00:49:20.110Z,5.15
2022-09-25T00:51:55.142Z,3.50
2022-09-25T00:54:35.103Z,4.57
2022-09-25T00:57:08.056Z,3.38
2022-09-25T00:59:41.828Z,4.47
2022-09-25T01:02:15.318Z,4.37
2022-09-25T01:04:46.245Z,5.70
2022-09-25T01:07:14.907Z,3.22
2022-09-25T01:09:41.961Z,4.40
2022-09-25T01:12:09.546Z,7.75
2022-09-25T01:14:37.795Z,6.22
2022-09-25T01:17:17.221Z,5.93
2022-09-25T01:20:14.585Z,3.65
2022-09-25T01:23:55.420Z,5.22
2022-09-25T01:26:52.975Z,2.97
2022-09-25T01:30:08.014Z,2.42
2022-09-25T01:32:58.718Z,3.72
2022-09-25T01:35:35.724Z,1.77
2022-09-25T01:38:22.115Z,4.57
2022-09-25T01:41:02.302Z,2.72
2022-09-25T01:43:34.843Z,5.53
2022-09-25T01:46:11.583Z,4.25
2022-09-25T01:48:42.055Z,1.55
2022-09-25T01:51:16.706Z,3.88
2022-09-25T01:56:40.171Z,2.88
2022-09-25T01:59:14.711Z,1.30
2022-09-25T02:01:44.560Z,2.15
2022-09-25T02:04:37.174Z,1.83
2022-09-25T02:07:09.523Z,6.28
2022-09-25T02:09:59.355Z,1.70
2022-09-25T02:12:37.535Z,1.63
2022-09-25T02:15:26.603Z,1.52
2022-09-25T02:18:22.416Z,2.22
2022-09-25T02:21:17.617Z,1.75
2022-09-25T02:24:19.073Z,1.63
2022-09-25T02:26:46.087Z,2.67
2022-09-25T02:29:13.162Z,1.25
2022-09-25T02:31:50.017Z,2.30
2022-09-25T02:34:17.416Z,1.92
2022-09-25T02:36:44.930Z,1.88
2022-09-25T02:39:17.196Z,3.50
2022-09-25T02:42:14.714Z,3.20
2022-09-25T02:45:22.737Z,3.42
2022-09-25T02:48:17.522Z,2.67
2022-09-25T02:51:20.692Z,2.50
2022-09-25T02:53:58.186Z,4.22
2022-09-25T02:56:48.086Z,2.97
2022-09-25T02:59:23.343Z,3.83
2022-09-25T03:01:51.442Z,1.80
2022-09-25T03:04:20.151Z,2.05
2022-09-25T03:06:47.532Z,3.80
2022-09-25T03:09:17.684Z,3.47
2022-09-25T03:11:44.548Z,2.63
2022-09-25T03:14:11.491Z,1.45
2022-09-25T03:16:47.288Z,3.45
2022-09-25T03:19:14.794Z,2.17
2022-09-25T03:21:42.223Z,3.70
2022-09-25T03:24:09.929Z,3.75
2022-09-25T03:26:37.002Z,2.08
2022-09-25T03:29:04.232Z,4.72
2022-09-25T03:31:31.511Z,2.25
2022-09-25T03:33:58.705Z,4.65
2022-09-25T03:36:29.484Z,4.13
2022-09-25T03:38:59.162Z,1.33
2022-09-25T03:41:34.597Z,2.88
2022-09-25T03:44:01.984Z,2.63
2022-09-25T03:46:36.392Z,3.83
2022-09-25T03:49:04.383Z,4.00
2022-09-25T03:51:32.957Z,4.78
2022-09-25T03:54:00.034Z,2.35
2022-09-25T03:56:29.775Z,2.40
2022-09-25T03:58:57.479Z,2.35
2022-09-25T04:01:26.401Z,1.60
2022-09-25T04:03:53.394Z,2.92
2022-09-25T04:06:25.244Z,5.25
2022-09-25T04:08:53.360Z,3.10
2022-09-25T04:11:22.732Z,1.92
2022-09-25T04:13:49.619Z,3.70
2022-09-25T04:16:17.767Z,1.48
2022-09-25T04:18:44.926Z,1.40
2022-09-25T04:21:14.042Z,1.80
2022-09-25T04:23:41.857Z,3.47
2022-09-25T04:26:09.602Z,2.63
2022-09-25T04:28:37.146Z,2.65
2022-09-25T04:31:04.635Z,1.58
2022-09-25T04:33:48.198Z,1.40
2022-09-25T04:36:17.212Z,1.48
2022-09-25T04:38:44.314Z,1.27
2022-09-25T04:41:11.530Z,2.97
2022-09-25T04:43:38.604Z,2.42
2022-09-25T04:46:08.365Z,1.70
2022-09-25T04:48:36.019Z,2.10
2022-09-25T04:51:04.548Z,3.03
2022-09-25T04:53:35.678Z,1.20
2022-09-25T04:56:12.200Z,1.33
2022-09-25T04:58:49.374Z,1.70
2022-09-25T05:01:19.843Z,2.63
2022-09-25T05:03:54.069Z,1.58
2022-09-25T05:06:21.241Z,3.72
2022-09-25T05:08:52.377Z,5.78
2022-09-25T05:11:19.310Z,2.88
2022-09-25T05:13:51.358Z,3.33
2022-09-25T05:16:19.543Z,3.83
2022-09-25T05:18:46.412Z,3.25
2022-09-25T05:21:13.243Z,2.55
2022-09-25T05:23:40.118Z,6.35
2022-09-25T05:26:07.016Z,1.70
2022-09-25T05:28:34.173Z,7.03
2022-09-25T05:31:05.693Z,3.50
2022-09-25T05:33:36.129Z,4.25
2022-09-25T05:36:07.443Z,1.73
2022-09-25T05:38:37.518Z,2.17
2022-09-25T05:41:07.201Z,1.60
2022-09-25T05:43:40.202Z,2.85
2022-09-25T05:46:07.582Z,3.42
2022-09-25T05:48:34.604Z,4.20
2022-09-25T05:51:01.689Z,3.25
2022-09-25T05:53:30.608Z,5.65
2022-09-25T05:56:01.280Z,3.33
2022-09-25T05:58:29.934Z,6.60
2022-09-25T06:01:04.299Z,4.72
2022-09-25T06:03:31.950Z,7.65
2022-09-25T06:05:59.908Z,5.55
2022-09-25T06:08:31.266Z,3.05
2022-09-25T06:11:00.850Z,4.00
2022-09-25T06:13:28.870Z,6.28
2022-09-25T06:15:57.115Z,4.32
2022-09-25T06:18:25.941Z,4.35
2022-09-25T06:20:59.785Z,5.53
2022-09-25T06:23:26.622Z,4.43
2022-09-25T06:25:53.470Z,5.68
2022-09-25T06:28:20.331Z,6.10
2022-09-25T06:30:47.872Z,4.72
2022-09-25T06:33:15.183Z,4.55
2022-09-25T06:35:48.167Z,5.65
2022-09-25T06:38:16.839Z,3.38
2022-09-25T06:40:43.927Z,5.50
2022-09-25T06:43:13.802Z,6.10
2022-09-25T06:45:42.075Z,5.15
2022-09-25T06:48:13.241Z,5.32
2022-09-25T06:50:46.339Z,8.48
2022-09-25T06:53:15.056Z,4.75
2022-09-25T06:55:45.258Z,6.43
2022-09-25T06:58:23.868Z,5.95
2022-09-25T07:00:53.231Z,9.02
2022-09-25T07:03:39.018Z,8.07
2022-09-25T07:06:09.071Z,7.47
2022-09-25T07:08:36.258Z,6.57
2022-09-25T07:11:03.703Z,7.00
2022-09-25T07:13:35.086Z,8.18
2022-09-25T07:16:05.820Z,8.70
2022-09-25T07:18:33.814Z,7.72
2022-09-25T07:21:13.844Z,7.63
2022-09-25T07:23:42.200Z,10.00
2022-09-25T07:26:16.793Z,6.88
2022-09-25T07:31:20.481Z,6.25
2022-09-25T07:33:48.293Z,8.68
2022-09-25T07:36:17.340Z,9.90
2022-09-25T07:38:46.182Z,7.22
2022-09-25T07:41:14.047Z,11.02
2022-09-25T07:43:43.470Z,8.38
2022-09-25T07:46:11.363Z,9.32
2022-09-25T07:48:38.382Z,5.20
2022-09-25T07:51:09.269Z,6.32
2022-09-25T07:53:36.177Z,9.77
2022-09-25T07:56:06.799Z,6.78
2022-09-25T07:58:37.858Z,9.00
2022-09-25T08:01:08.437Z,9.38
2022-09-25T08:03:35.692Z,8.85
2022-09-25T08:06:13.179Z,8.70
2022-09-25T08:08:42.118Z,7.82
2022-09-25T08:11:12.663Z,8.90
2022-09-25T08:13:41.482Z,12.45
2022-09-25T08:16:14.957Z,7.60
2022-09-25T08:18:46.190Z,9.68
2022-09-25T08:21:16.460Z,13.93
2022-09-25T08:23:48.431Z,10.68
2022-09-25T08:26:17.054Z,6.38
2022-09-25T08:28:44.328Z,7.45
2022-09-25T08:31:12.086Z,8.93
2022-09-25T08:33:40.483Z,7.63
2022-09-25T08:36:07.465Z,8.45
2022-09-25T08:38:34.369Z,9.38
2022-09-25T08:41:04.214Z,8.25
2022-09-25T08:43:36.332Z,7.40
2022-09-25T08:46:26.698Z,5.15
2022-09-25T08:49:07.455Z,5.35
2022-09-25T08:51:42.518Z,5.53
2022-09-25T08:54:19.873Z,3.97
2022-09-25T08:57:25.029Z,5.57
2022-09-25T09:00:01.447Z,7.05
2022-09-25T09:02:42.628Z,5.40
2022-09-25T09:05:30.811Z,6.35
2022-09-25T09:08:04.983Z,7.45
2022-09-25T09:10:49.384Z,6.68
2022-09-25T09:13:22.589Z,6.60
2022-09-25T09:16:00.987Z,5.30
2022-09-25T09:18:31.338Z,3.75
2022-09-25T09:21:20.524Z,7.80
2022-09-25T09:24:08.545Z,7.03
2022-09-25T09:27:22.420Z,5.68
2022-09-25T09:30:15.651Z,9.57
2022-09-25T09:33:27.517Z,6.00
2022-09-25T09:36:19.414Z,5.03
2022-09-25T09:39:32.191Z,4.45
2022-09-25T09:42:19.761Z,3.47
2022-09-25T09:45:21.377Z,5.40
2022-09-25T09:48:02.677Z,3.95
2022-09-25T09:51:00.397Z,5.03
2022-09-25T09:53:42.856Z,3.30
2022-09-25T09:56:14.924Z,7.60
2022-09-25T09:58:50.884Z,6.50
2022-09-25T10:04:26.557Z,4.53
2022-09-25T10:07:05.195Z,5.15
2022-09-25T10:09:32.451Z,4.82
2022-09-25T10:12:32.964Z,5.03
2022-09-25T10:15:13.043Z,5.10
2022-09-25T10:17:41.300Z,4.95
2022-09-25T10:20:23.753Z,6.30
2022-09-25T10:22:56.696Z,6.20
2022-09-25T10:25:39.594Z,7.18
2022-09-25T10:28:23.211Z,6.13
2022-09-25T10:30:52.375Z,4.45
2022-09-25T10:33:23.543Z,6.07
2022-09-25T10:35:54.844Z,4.22
2022-09-25T10:38:38.098Z,5.80
2022-09-25T10:41:15.119Z,2.40
2022-09-25T10:44:02.289Z,3.80
2022-09-25T10:46:54.370Z,3.20
2022-09-25T10:49:45.804Z,4.55
2022-09-25T10:52:22.227Z,3.58
2022-09-25T10:54:51.008Z,3.13
2022-09-25T10:57:38.253Z,3.15
2022-09-25T11:00:20.986Z,4.13
2022-09-25T11:02:57.394Z,3.97
2022-09-25T11:05:33.818Z,3.08
2022-09-25T11:08:05.523Z,6.13
2022-09-25T11:10:37.352Z,4.47
2022-09-25T11:13:30.109Z,1.98
2022-09-25T11:16:00.794Z,0.70
2022-09-25T11:19:10.841Z,0.75
2022-09-25T11:22:30.646Z,2.60
2022-09-25T11:25:18.084Z,2.65
2022-09-25T11:27:56.012Z,2.05
2022-09-25T11:30:24.021Z,3.25
2022-09-25T11:32:54.749Z,0.85
2022-09-25T11:35:27.452Z,1.13
2022-09-25T11:38:52.959Z,1.80
2022-09-25T11:41:38.757Z,2.67
2022-09-25T11:44:27.590Z,3.78
2022-09-25T11:47:18.004Z,1.48
2022-09-25T11:49:54.469Z,2.38
2022-09-25T11:53:07.588Z,2.28
2022-09-25T11:56:03.420Z,3.35
2022-09-25T11:59:02.478Z,1.58
2022-09-25T12:01:45.268Z,0.98
2022-09-25T12:04:32.564Z,1.20
2022-09-25T12:07:19.326Z,1.52
2022-09-25T12:10:07.569Z,1.67
2022-09-25T12:12:59.351Z,2.13
2022-09-25T12:15:53.334Z,1.35
2022-09-25T12:18:36.166Z,2.95
2022-09-25T12:21:19.392Z,1.85
2022-09-25T12:24:05.189Z,1.38
2022-09-25T12:26:51.706Z,2.72
2022-09-25T12:29:40.027Z,2.97
2022-09-25T12:32:47.888Z,1.45
2022-09-25T12:35:41.623Z,2.33
2022-09-25T12:38:14.767Z,2.58
2022-09-25T12:40:58.965Z,3.70
2022-09-25T12:43:41.252Z,0.90
2022-09-25T12:46:22.642Z,1.58
2022-09-25T12:48:58.797Z,2.53
2022-09-25T12:51:47.782Z,1.00
2022-09-25T12:54:59.599Z,0.73
2022-09-25T12:57:48.248Z,1.92
2022-09-25T13:00:25.882Z,1.77
2022-09-25T13:03:11.969Z,1.52
2022-09-25T13:06:07.462Z,2.40
2022-09-25T13:08:55.531Z,1.45
2022-09-25T13:11:47.836Z,2.75
2022-09-25T13:14:39.967Z,1.42
2022-09-25T13:17:11.611Z,5.75
2022-09-25T13:19:39.004Z,2.10
2022-09-25T13:22:27.304Z,0.82
2022-09-25T13:25:13.912Z,0.47
2022-09-25T13:27:46.635Z,2.13
2022-09-25T13:30:21.218Z,1.40
2022-09-25T13:35:21.314Z,1.15
2022-09-25T13:37:54.378Z,1.65
2022-09-25T13:40:46.594Z,2.20
2022-09-25T13:43:26.906Z,1.30
2022-09-25T13:46:23.300Z,1.17
2022-09-25T13:48:55.784Z,1.95
2022-09-25T13:51:22.636Z,0.65
2022-09-25T13:54:09.388Z,1.77
2022-09-25T13:56:42.145Z,2.83
2022-09-25T13:59:15.734Z,1.55
2022-09-25T14:01:59.014Z,1.57
2022-09-25T14:04:39.133Z,1.33
2022-09-25T14:07:19.918Z,3.30
2022-09-25T14:09:53.820Z,2.30
2022-09-25T14:12:25.442Z,1.63
2022-09-25T14:15:23.102Z,1.98
2022-09-25T14:17:53.039Z,1.80
2022-09-25T14:20:41.757Z,1.98
2022-09-25T14:23:33.157Z,4.13
2022-09-25T14:26:15.743Z,2.97
2022-09-25T14:28:47.773Z,2.17
2022-09-25T14:31:29.625Z,1.58
2022-09-25T14:34:38.709Z,2.95
2022-09-25T14:37:36.678Z,1.55
2022-09-25T14:40:21.864Z,4.43
2022-09-25T14:43:13.303Z,2.42
2022-09-25T14:45:52.053Z,2.95
2022-09-25T14:48:26.268Z,3.15
2022-09-25T14:50:58.913Z,2.65
2022-09-25T14:53:43.761Z,2.60
2022-09-25T14:56:14.606Z,2.38
2022-09-25T14:58:49.584Z,2.13
2022-09-25T15:01:46.055Z,2.22
2022-09-25T15:04:13.364Z,1.65
2022-09-25T15:06:40.853Z,3.30
2022-09-25T15:09:38.672Z,1.95
2022-09-25T15:12:20.631Z,1.95
2022-09-25T15:15:12.263Z,1.73
2022-09-25T15:17:57.918Z,2.92
2022-09-25T15:20:31.003Z,3.13
2022-09-25T15:23:07.921Z,2.28
2022-09-25T15:25:39.920Z,1.38
2022-09-25T15:28:18.345Z,2.83
2022-09-25T15:30:47.318Z,1.85
2022-09-25T15:33:31.343Z,1.05
2022-09-25T15:36:01.893Z,2.10
2022-09-25T15:38:37.510Z,1.63
2022-09-25T15:41:09.338Z,1.73
2022-09-25T15:43:36.195Z,3.22
2022-09-25T15:46:09.237Z,2.75
2022-09-25T15:48:42.639Z,1.00
2022-09-25T15:51:21.576Z,1.73
2022-09-25T15:54:34.247Z,3.80
2022-09-25T15:57:07.179Z,3.60
2022-09-25T15:59:59.703Z,2.83
2022-09-25T16:02:51.328Z,2.33
2022-09-25T16:05:25.895Z,1.15
2022-09-25T16:07:56.132Z,0.95
2022-09-25T16:10:32.035Z,1.45
2022-09-25T16:12:59.300Z,1.23
2022-09-25T16:15:30.167Z,1.10
2022-09-25T16:18:05.441Z,2.15
2022-09-25T16:20:34.940Z,2.65
2022-09-25T16:23:05.844Z,1.60
2022-09-25T16:25:43.699Z,1.05
2022-09-25T16:28:21.031Z,1.60
2022-09-25T16:30:51.107Z,1.90
2022-09-25T16:33:37.698Z,2.05
2022-09-25T16:36:17.702Z,2.15
2022-09-25T16:39:10.112Z,1.10
2022-09-25T16:41:48.574Z,1.83
2022-09-25T16:44:27.993Z,1.58
2022-09-25T16:46:57.638Z,4.10
2022-09-25T16:49:25.139Z,2.05
2022-09-25T16:51:54.994Z,1.45
2022-09-25T16:54:30.995Z,2.83
2022-09-25T16:56:59.470Z,3.53
2022-09-25T16:59:28.558Z,2.83
2022-09-25T17:02:03.517Z,3.65
2022-09-25T17:04:32.140Z,2.75
2022-09-25T17:06:59.416Z,1.85
2022-09-25T17:09:28.922Z,3.22
2022-09-25T17:12:10.656Z,3.90
2022-09-25T17:14:37.654Z,2.13
2022-09-25T17:17:04.512Z,3.03
2022-09-25T17:19:31.886Z,1.23
2022-09-25T17:21:58.781Z,0.95
2022-09-25T17:24:27.572Z,1.05
2022-09-25T17:26:54.989Z,2.15
2022-09-25T17:29:22.668Z,3.65
2022-09-25T17:31:49.681Z,2.67
2022-09-25T17:34:21.078Z,2.33
2022-09-25T17:36:47.917Z,2.15
2022-09-25T17:39:14.917Z,2.03
2022-09-25T17:41:42.490Z,1.77
2022-09-25T17:44:16.186Z,2.45
2022-09-25T17:46:43.964Z,3.67
2022-09-25T17:49:11.548Z,2.88
2022-09-25T17:51:39.662Z,1.83
2022-09-25T17:54:06.695Z,2.83
2022-09-25T17:56:34.980Z,2.00
2022-09-25T17:59:02.390Z,1.75
2022-09-25T18:01:36.793Z,5.28
2022-09-25T18:04:25.657Z,4.63
2022-09-25T18:06:52.810Z,3.28
2022-09-25T18:09:19.893Z,4.53
2022-09-25T18:11:46.878Z,4.53
2022-09-25T18:14:15.658Z,3.97
2022-09-25T18:16:44.563Z,3.00
2022-09-25T18:19:41.377Z,3.25
2022-09-25T18:22:18.197Z,3.85
2022-09-25T18:24:47.509Z,2.88
2022-09-25T18:27:16.283Z,2.70
2022-09-25T18:29:44.701Z,3.38
2022-09-25T18:32:11.806Z,4.57
2022-09-25T18:34:38.755Z,3.35
2022-09-25T18:37:05.660Z,2.97
2022-09-25T18:39:32.678Z,3.35
2022-09-25T18:41:59.542Z,2.90
2022-09-25T18:44:27.622Z,5.00
2022-09-25T18:46:56.016Z,4.80
2022-09-25T18:49:24.019Z,3.70
2022-09-25T18:51:50.994Z,3.85
2022-09-25T18:54:18.319Z,4.90
2022-09-25T18:56:45.333Z,6.20
2022-09-25T18:59:12.256Z,2.53
2022-09-25T19:01:40.059Z,4.93
2022-09-25T19:04:08.051Z,3.95
2022-09-25T19:06:35.099Z,3.67
2022-09-25T19:09:04.311Z,4.82
2022-09-25T19:11:31.216Z,4.55
2022-09-25T19:13:58.997Z,5.15
2022-09-25T19:16:26.056Z,4.80
2022-09-25T19:18:52.998Z,3.53
2022-09-25T19:21:24.213Z,3.75
2022-09-25T19:23:51.133Z,4.47
2022-09-25T19:26:25.955Z,4.82
2022-09-25T19:28:53.918Z,3.25
2022-09-25T19:31:28.138Z,3.22
2022-09-25T19:33:55.928Z,4.88
2022-09-25T19:36:27.407Z,4.78
2022-09-25T19:38:54.692Z,3.92
2022-09-25T19:41:26.425Z,5.43
2022-09-25T19:43:59.212Z,3.47
2022-09-25T19:46:27.755Z,10.70
2022-09-25T19:48:55.451Z,4.07
2022-09-25T19:51:25.043Z,5.18
2022-09-25T19:53:53.477Z,3.25
2022-09-25T19:56:21.189Z,3.95
2022-09-25T19:58:50.804Z,3.97
2022-09-25T20:01:26.119Z,4.10
2022-09-25T20:03:56.765Z,6.88
2022-09-25T20:06:25.527Z,4.68
2022-09-25T20:09:02.136Z,4.32
2022-09-25T20:11:30.139Z,4.20
2022-09-25T20:13:58.032Z,4.97
2022-09-25T20:16:27.908Z,5.88
2022-09-25T20:19:06.180Z,5.35
2022-09-25T20:21:37.281Z,7.65
2022-09-25T20:24:07.578Z,7.25
2022-09-25T20:26:36.514Z,5.68
2022-09-25T20:29:12.163Z,5.45
2022-09-25T20:31:43.315Z,8.73
2022-09-25T20:34:17.901Z,5.63
2022-09-25T20:39:15.563Z,6.32
2022-09-25T20:41:45.324Z,5.93
2022-09-25T20:44:12.361Z,7.43
2022-09-25T20:46:39.404Z,5.40
2022-09-25T20:49:06.359Z,7.30
2022-09-25T20:51:35.379Z,8.13
2022-09-25T20:54:08.853Z,9.82
2022-09-25T20:56:38.114Z,7.10
2022-09-25T20:59:05.711Z,5.35
2022-09-25T21:01:37.305Z,6.72
2022-09-25T21:04:08.188Z,4.32
2022-09-25T21:06:38.242Z,5.43
2022-09-25T21:09:10.386Z,4.18
2022-09-25T21:11:40.507Z,4.18
2022-09-25T21:14:07.480Z,8.07
2022-09-25T21:16:34.423Z,5.22
2022-09-25T21:19:04.435Z,5.05
2022-09-25T21:21:33.473Z,4.18
2022-09-25T21:24:02.439Z,3.40
2022-09-25T21:26:31.617Z,4.70
2022-09-25T21:29:01.769Z,5.55
2022-09-25T21:31:35.369Z,4.60
2022-09-25T21:34:02.695Z,5.90
2022-09-25T21:36:30.809Z,6.70
2022-09-25T21:39:00.350Z,6.07
2022-09-25T21:41:29.455Z,5.78
2022-09-25T21:44:00.197Z,5.72
2022-09-25T21:46:28.701Z,3.35
2022-09-25T21:49:05.539Z,3.92
2022-09-25T21:51:45.764Z,4.57
2022-09-25T21:54:15.007Z,4.85
2022-09-25T21:56:44.393Z,3.78
2022-09-25T21:59:11.927Z,5.15
2022-09-25T22:01:39.894Z,4.22
2022-09-25T22:04:11.354Z,5.20
2022-09-25T22:06:42.780Z,5.03
2022-09-25T22:09:20.259Z,6.35
2022-09-25T22:11:48.073Z,4.93
2022-09-25T22:14:16.709Z,3.92
2022-09-25T22:16:47.445Z,7.40
2022-09-25T22:19:30.328Z,6.95
2022-09-25T22:21:59.328Z,4.63
2022-09-25T22:24:27.034Z,5.68
2022-09-25T22:26:55.898Z,4.60
2022-09-25T22:29:23.525Z,6.88
2022-09-25T22:31:51.097Z,4.22
2022-09-25T22:34:25.543Z,4.88
2022-09-25T22:36:58.719Z,8.00
2022-09-25T22:39:26.958Z,6.20
2022-09-25T22:41:54.891Z,5.03
2022-09-25T22:44:22.535Z,6.03
2022-09-25T22:46:49.697Z,8.85
2022-09-25T22:49:16.638Z,8.30
2022-09-25T22:51:43.860Z,8.88
2022-09-25T22:54:13.830Z,6.05
2022-09-25T22:56:41.909Z,6.20
2022-09-25T22:59:13.668Z,7.68
2022-09-25T23:01:53.986Z,6.00
2022-09-25T23:04:24.307Z,5.93
2022-09-25T23:06:51.995Z,8.38
2022-09-25T23:09:22.641Z,4.93
2022-09-25T23:11:49.862Z,6.50
2022-09-25T23:14:21.976Z,9.63
2022-09-25T23:16:51.766Z,8.02
2022-09-25T23:19:19.529Z,6.65
2022-09-25T23:21:46.944Z,6.03
2022-09-25T23:24:17.574Z,7.55
2022-09-25T23:26:45.885Z,9.20
2022-09-25T23:29:15.126Z,7.97
2022-09-25T23:31:42.380Z,7.32
2022-09-25T23:34:10.172Z,6.43
2022-09-25T23:36:37.617Z,5.28
2022-09-25T23:39:05.599Z,6.97
2022-09-25T23:41:36.154Z,6.30
2022-09-25T23:44:08.192Z,5.05
2022-09-25T23:46:39.364Z,9.10
2022-09-25T23:49:06.818Z,5.93
2022-09-25T23:51:33.986Z,4.82
2022-09-25T23:54:02.051Z,5.72
2022-09-25T23:56:32.566Z,9.93
2022-09-25T23:59:01.651Z,7.13
